createdAt,value
2022-08-01T00:00:09.029Z,13.95
2022-08-01T00:02:37.128Z,11.02
2022-08-01T00:05:03.988Z,23.05
2022-08-01T00:07:30.607Z,16.67
2022-08-01T00:09:57.173Z,16.85
2022-08-01T00:12:23.740Z,12.50
2022-08-01T00:14:50.352Z,18.25
2022-08-01T00:17:16.965Z,11.13
2022-08-01T00:19:43.582Z,11.98
2022-08-01T00:22:10.325Z,13.52
2022-08-01T00:24:37.202Z,15.45
2022-08-01T00:27:03.899Z,11.13
2022-08-01T00:30:10.957Z,14.50
2022-08-01T00:32:17.101Z,12.70
2022-08-01T00:34:43.703Z,18.67
2022-08-01T00:37:10.321Z,13.93
2022-08-01T00:39:42.100Z,13.98
2022-08-01T00:42:10.590Z,16.42
2022-08-01T00:44:37.981Z,30.02
2022-08-01T00:47:05.262Z,12.32
2022-08-01T00:49:32.227Z,12.63
2022-08-01T00:52:02.498Z,19.52
2022-08-01T00:54:29.501Z,15.13
2022-08-01T00:56:56.351Z,19.83
2022-08-01T00:59:25.929Z,12.40
2022-08-01T01:01:53.692Z,15.38
2022-08-01T01:04:20.569Z,14.65
2022-08-01T01:07:17.783Z,14.48
2022-08-01T01:10:01.775Z,13.60
2022-08-01T01:12:45.802Z,13.07
2022-08-01T01:15:37.769Z,15.77
2022-08-01T01:18:24.683Z,18.40
2022-08-01T01:21:27.808Z,15.70
2022-08-01T01:24:32.001Z,13.85
2022-08-01T01:27:08.017Z,12.82
2022-08-01T01:29:58.511Z,14.55
2022-08-01T01:32:49.144Z,14.02
2022-08-01T01:35:21.359Z,12.40
2022-08-01T01:37:50.996Z,16.52
2022-08-01T01:40:19.092Z,15.25
2022-08-01T01:42:47.497Z,12.43
2022-08-01T01:45:15.021Z,17.20
2022-08-01T01:47:42.998Z,12.68
2022-08-01T01:50:12.198Z,16.90
2022-08-01T01:52:41.127Z,13.23
2022-08-01T01:55:10.010Z,11.95
2022-08-01T01:57:42.458Z,12.55
2022-08-01T02:00:12.439Z,12.43
2022-08-01T02:02:40.412Z,13.93
2022-08-01T02:05:09.508Z,16.55
2022-08-01T02:07:38.106Z,12.35
2022-08-01T02:10:06.413Z,12.82
2022-08-01T02:12:37.424Z,13.55
2022-08-01T02:15:05.576Z,12.65
2022-08-01T02:17:32.881Z,12.40
2022-08-01T02:19:59.902Z,11.45
2022-08-01T02:22:43.002Z,12.82
2022-08-01T02:25:28.390Z,15.38
2022-08-01T02:28:10.279Z,15.52
2022-08-01T02:30:39.834Z,14.73
2022-08-01T02:33:15.754Z,12.48
2022-08-01T02:36:31.111Z,17.42
2022-08-01T02:38:35.280Z,11.60
2022-08-01T02:41:09.412Z,14.05
2022-08-01T02:43:40.221Z,11.65
2022-08-01T02:46:12.711Z,14.32
2022-08-01T02:48:43.612Z,13.73
2022-08-01T02:51:12.807Z,19.20
2022-08-01T02:53:44.700Z,18.25
2022-08-01T02:56:13.001Z,13.60
2022-08-01T02:58:41.596Z,14.20
2022-08-01T03:01:09.893Z,12.98
2022-08-01T03:03:38.269Z,11.38
2022-08-01T03:06:05.931Z,12.50
2022-08-01T03:08:34.157Z,11.55
2022-08-01T03:11:02.605Z,11.05
2022-08-01T03:13:32.050Z,11.95
2022-08-01T03:16:01.425Z,11.93
2022-08-01T03:18:29.342Z,11.68
2022-08-01T03:20:57.499Z,11.57
2022-08-01T03:23:38.288Z,11.63
2022-08-01T03:26:07.288Z,12.57
2022-08-01T03:28:34.395Z,15.10
2022-08-01T03:31:02.384Z,16.50
2022-08-01T03:33:29.613Z,11.27
2022-08-01T03:35:58.778Z,12.88
2022-08-01T03:38:28.140Z,14.05
2022-08-01T03:40:59.975Z,11.60
2022-08-01T03:43:42.566Z,10.68
2022-08-01T03:46:12.890Z,12.13
2022-08-01T03:48:43.883Z,11.77
2022-08-01T03:51:13.437Z,11.27
2022-08-01T03:53:43.178Z,11.40
2022-08-01T03:56:11.308Z,10.52
2022-08-01T03:58:40.825Z,10.98
2022-08-01T04:01:15.864Z,11.50
2022-08-01T04:03:43.862Z,10.93
2022-08-01T04:06:11.555Z,10.07
2022-08-01T04:08:39.431Z,9.07
2022-08-01T04:11:06.243Z,9.43
2022-08-01T04:13:36.987Z,9.70
2022-08-01T04:16:04.463Z,9.13
2022-08-01T04:18:31.147Z,9.32
2022-08-01T04:20:57.763Z,9.25
2022-08-01T04:23:27.741Z,10.05
2022-08-01T04:25:55.594Z,10.77
2022-08-01T04:28:23.971Z,9.45
2022-08-01T04:30:53.484Z,10.38
2022-08-01T04:33:21.446Z,10.52
2022-08-01T04:36:02.019Z,12.85
2022-08-01T04:38:34.399Z,8.77
2022-08-01T04:41:08.555Z,9.90
2022-08-01T04:43:35.753Z,8.55
2022-08-01T04:46:05.082Z,10.00
2022-08-01T04:48:34.606Z,9.25
2022-08-01T04:51:01.630Z,9.30
2022-08-01T04:53:28.933Z,8.55
2022-08-01T04:55:56.632Z,8.25
2022-08-01T04:58:23.329Z,9.63
2022-08-01T05:00:50.031Z,9.10
2022-08-01T05:03:17.177Z,8.18
2022-08-01T05:05:43.803Z,8.55
2022-08-01T05:08:11.184Z,9.02
2022-08-01T05:10:37.855Z,8.77
2022-08-01T05:13:04.467Z,8.48
2022-08-01T05:15:31.932Z,7.50
2022-08-01T05:17:58.754Z,8.02
2022-08-01T05:20:25.369Z,8.80
2022-08-01T05:22:52.122Z,8.20
2022-08-01T05:25:20.238Z,9.50
2022-08-01T05:27:50.900Z,8.82
2022-08-01T05:30:17.965Z,8.50
2022-08-01T05:32:44.606Z,8.30
2022-08-01T05:35:11.264Z,8.88
2022-08-01T05:37:37.989Z,8.10
2022-08-01T05:40:05.695Z,7.10
2022-08-01T05:42:32.389Z,9.27
2022-08-01T05:44:59.122Z,7.45
2022-08-01T05:47:25.750Z,7.55
2022-08-01T05:49:52.332Z,8.30
2022-08-01T05:52:19.107Z,7.47
2022-08-01T05:54:45.700Z,8.35
2022-08-01T05:57:12.502Z,7.95
2022-08-01T05:59:39.213Z,6.88
2022-08-01T06:02:06.174Z,8.20
2022-08-01T06:04:33.164Z,8.00
2022-08-01T06:06:59.753Z,7.57
2022-08-01T06:09:26.450Z,7.68
2022-08-01T06:11:53.048Z,9.02
2022-08-01T06:14:19.658Z,8.40
2022-08-01T06:16:46.263Z,7.10
2022-08-01T06:19:12.904Z,7.35
2022-08-01T06:21:39.508Z,7.30
2022-08-01T06:24:06.413Z,8.02
2022-08-01T06:26:33.163Z,7.80
2022-08-01T06:28:59.915Z,6.70
2022-08-01T06:31:30.503Z,8.15
2022-08-01T06:33:59.854Z,8.20
2022-08-01T06:36:26.667Z,7.30
2022-08-01T06:38:53.292Z,7.30
2022-08-01T06:41:19.959Z,7.22
2022-08-01T06:43:46.591Z,6.88
2022-08-01T06:46:14.453Z,7.63
2022-08-01T06:48:41.094Z,7.25
2022-08-01T06:51:10.623Z,6.22
2022-08-01T06:53:38.986Z,6.20
2022-08-01T06:56:06.481Z,6.60
2022-08-01T06:58:33.178Z,6.78
2022-08-01T07:00:59.883Z,7.03
2022-08-01T07:03:27.677Z,6.57
2022-08-01T07:06:11.727Z,7.25
2022-08-01T07:08:39.422Z,6.53
2022-08-01T07:11:07.039Z,5.53
2022-08-01T07:13:44.044Z,5.20
2022-08-01T07:16:11.002Z,5.30
2022-08-01T07:18:37.624Z,5.15
2022-08-01T07:21:04.873Z,4.85
2022-08-01T07:23:34.064Z,4.78
2022-08-01T07:26:04.978Z,4.30
2022-08-01T07:28:31.964Z,4.68
2022-08-01T07:30:58.614Z,4.80
2022-08-01T07:33:25.237Z,4.57
2022-08-01T07:35:51.873Z,4.60
2022-08-01T07:38:18.510Z,4.35
2022-08-01T07:40:45.463Z,4.07
2022-08-01T07:43:12.195Z,4.47
2022-08-01T07:45:38.831Z,5.38
2022-08-01T07:48:12.009Z,4.80
2022-08-01T07:50:38.818Z,4.18
2022-08-01T07:53:05.580Z,4.20
2022-08-01T07:55:32.211Z,4.35
2022-08-01T07:57:58.836Z,4.28
2022-08-01T08:00:25.526Z,4.20
2022-08-01T08:02:52.153Z,3.78
2022-08-01T08:05:59.790Z,3.78
2022-08-01T08:08:06.713Z,3.92
2022-08-01T08:10:34.136Z,3.92
2022-08-01T08:13:02.547Z,4.50
2022-08-01T08:15:29.898Z,3.67
2022-08-01T08:17:56.692Z,3.63
2022-08-01T08:20:28.045Z,4.25
2022-08-01T08:22:55.467Z,3.10
2022-08-01T08:25:26.810Z,3.28
2022-08-01T08:27:53.733Z,2.90
2022-08-01T08:30:20.572Z,3.03
2022-08-01T08:32:49.005Z,3.17
2022-08-01T08:35:20.079Z,3.47
2022-08-01T08:37:50.206Z,3.10
2022-08-01T08:40:30.257Z,3.20
2022-08-01T08:42:59.633Z,2.92
2022-08-01T08:45:45.048Z,2.90
2022-08-01T08:48:14.350Z,3.03
2022-08-01T08:50:44.358Z,3.25
2022-08-01T08:53:16.948Z,3.28
2022-08-01T08:55:55.661Z,3.05
2022-08-01T08:58:30.674Z,2.72
2022-08-01T09:00:59.007Z,2.78
2022-08-01T09:03:26.092Z,2.70
2022-08-01T09:05:52.845Z,3.58
2022-08-01T09:08:19.730Z,3.45
2022-08-01T09:10:46.403Z,2.70
2022-08-01T09:13:15.394Z,2.72
2022-08-01T09:15:47.495Z,3.17
2022-08-01T09:18:44.695Z,4.10
2022-08-01T09:21:13.634Z,2.60
2022-08-01T09:23:54.072Z,2.75
2022-08-01T09:26:33.943Z,2.92
2022-08-01T09:29:04.233Z,3.00
2022-08-01T09:31:47.546Z,2.63
2022-08-01T09:34:15.780Z,3.00
2022-08-01T09:36:58.109Z,2.83
2022-08-01T09:39:33.246Z,2.83
2022-08-01T09:42:02.060Z,3.60
2022-08-01T09:44:46.515Z,2.55
2022-08-01T09:47:23.696Z,2.45
2022-08-01T09:49:59.208Z,3.22
2022-08-01T09:52:28.973Z,2.67
2022-08-01T09:55:02.824Z,2.38
2022-08-01T09:57:30.196Z,2.93
2022-08-01T10:00:01.423Z,3.13
2022-08-01T10:02:40.155Z,2.53
2022-08-01T10:05:09.396Z,3.03
2022-08-01T10:07:58.884Z,8.35
2022-08-01T10:10:29.099Z,2.80
2022-08-01T10:13:00.803Z,2.92
2022-08-01T10:15:36.835Z,2.58
2022-08-01T10:18:21.439Z,2.80
2022-08-01T10:20:56.559Z,2.83
2022-08-01T10:23:39.971Z,2.67
2022-08-01T10:26:08.714Z,2.63
2022-08-01T10:28:39.485Z,2.90
2022-08-01T10:31:12.698Z,2.85
2022-08-01T10:33:50.734Z,2.83
2022-08-01T10:36:26.120Z,3.10
2022-08-01T10:38:55.543Z,2.83
2022-08-01T10:41:22.883Z,3.42
2022-08-01T10:43:49.790Z,2.78
2022-08-01T10:46:19.162Z,2.83
2022-08-01T10:48:57.281Z,3.20
2022-08-01T10:51:52.009Z,3.88
2022-08-01T10:54:14.314Z,2.85
2022-08-01T10:56:51.797Z,2.65
2022-08-01T10:59:49.282Z,3.17
2022-08-01T11:02:10.268Z,3.65
2022-08-01T11:04:55.943Z,3.53
2022-08-01T11:07:35.443Z,3.67
2022-08-01T11:10:15.627Z,3.00
2022-08-01T11:12:44.210Z,2.92
2022-08-01T11:15:10.959Z,2.92
2022-08-01T11:17:54.517Z,2.92
2022-08-01T11:20:27.433Z,3.10
2022-08-01T11:22:59.958Z,2.92
2022-08-01T11:26:06.817Z,2.80
2022-08-01T11:28:15.401Z,3.17
2022-08-01T11:30:43.832Z,2.50
2022-08-01T11:33:12.125Z,2.70
2022-08-01T11:35:59.235Z,3.25
2022-08-01T11:38:31.005Z,2.88
2022-08-01T11:41:14.323Z,2.88
2022-08-01T11:43:59.277Z,3.10
2022-08-01T11:46:53.673Z,2.17
2022-08-01T11:49:49.354Z,2.72
2022-08-01T11:52:28.123Z,2.35
2022-08-01T11:55:10.273Z,2.70
2022-08-01T11:57:39.465Z,2.80
2022-08-01T12:00:15.059Z,3.13
2022-08-01T12:02:45.333Z,3.00
2022-08-01T12:05:15.744Z,3.22
2022-08-01T12:07:44.241Z,2.70
2022-08-01T12:10:12.477Z,2.53
2022-08-01T12:12:47.676Z,2.72
2022-08-01T12:15:14.617Z,2.65
2022-08-01T12:17:46.995Z,2.55
2022-08-01T12:22:59.706Z,2.20
2022-08-01T12:25:26.381Z,2.75
2022-08-01T12:27:56.469Z,2.60
2022-08-01T12:30:25.060Z,2.25
2022-08-01T12:32:53.342Z,3.03
2022-08-01T12:35:28.631Z,2.88
2022-08-01T12:38:19.754Z,2.72
2022-08-01T12:40:53.001Z,2.53
2022-08-01T12:43:28.516Z,3.03
2022-08-01T12:45:59.408Z,2.50
2022-08-01T12:48:26.901Z,2.20
2022-08-01T12:50:54.447Z,2.70
2022-08-01T12:53:22.712Z,2.50
2022-08-01T12:55:59.001Z,2.38
2022-08-01T12:58:32.906Z,2.38
2022-08-01T13:01:08.535Z,2.67
2022-08-01T13:03:35.406Z,2.72
2022-08-01T13:06:02.629Z,2.78
2022-08-01T13:08:34.606Z,2.50
2022-08-01T13:11:03.413Z,2.33
2022-08-01T13:13:49.068Z,2.13
2022-08-01T13:16:31.243Z,2.80
2022-08-01T13:19:06.523Z,3.00
2022-08-01T13:21:52.323Z,2.67
2022-08-01T13:24:28.291Z,2.42
2022-08-01T13:26:59.717Z,2.47
2022-08-01T13:29:39.609Z,2.55
2022-08-01T13:32:28.607Z,2.60
2022-08-01T13:35:10.572Z,2.58
2022-08-01T13:37:38.720Z,2.50
2022-08-01T13:40:07.197Z,2.90
2022-08-01T13:42:34.306Z,2.40
2022-08-01T13:45:01.158Z,2.60
2022-08-01T13:47:31.922Z,3.00
2022-08-01T13:50:04.037Z,2.83
2022-08-01T13:52:31.795Z,3.00
2022-08-01T13:54:59.098Z,2.83
2022-08-01T13:57:25.846Z,3.40
2022-08-01T14:00:04.835Z,3.03
2022-08-01T14:02:31.429Z,3.08
2022-08-01T14:04:59.535Z,2.80
2022-08-01T14:07:26.152Z,3.28
2022-08-01T14:10:04.415Z,2.90
2022-08-01T14:12:42.015Z,3.17
2022-08-01T14:15:12.498Z,3.03
2022-08-01T14:17:40.427Z,3.00
2022-08-01T14:20:14.949Z,3.13
2022-08-01T14:22:41.654Z,2.88
2022-08-01T14:25:09.044Z,3.10
2022-08-01T14:27:37.318Z,4.00
2022-08-01T14:30:08.145Z,2.80
2022-08-01T14:32:34.844Z,2.75
2022-08-01T14:35:06.672Z,2.60
2022-08-01T14:37:38.159Z,3.45
2022-08-01T14:40:09.888Z,3.20
2022-08-01T14:42:37.857Z,2.92
2022-08-01T14:45:09.772Z,2.33
2022-08-01T14:47:40.877Z,2.80
2022-08-01T14:50:10.301Z,2.88
2022-08-01T14:52:38.300Z,2.50
2022-08-01T14:55:06.655Z,3.03
2022-08-01T14:57:33.391Z,2.10
2022-08-01T15:00:00.013Z,2.85
2022-08-01T15:02:26.874Z,2.47
2022-08-01T15:04:53.574Z,3.08
2022-08-01T15:07:20.301Z,2.70
2022-08-01T15:09:46.922Z,2.50
2022-08-01T15:12:13.891Z,2.28
2022-08-01T15:14:50.402Z,2.15
2022-08-01T15:17:22.732Z,2.08
2022-08-01T15:19:52.257Z,2.35
2022-08-01T15:22:19.299Z,2.22
2022-08-01T15:24:51.924Z,2.10
2022-08-01T15:27:22.068Z,1.90
2022-08-01T15:29:49.855Z,2.22
2022-08-01T15:32:16.795Z,1.80
2022-08-01T15:34:44.291Z,1.65
2022-08-01T15:37:12.128Z,1.67
2022-08-01T15:39:39.515Z,2.20
2022-08-01T15:42:09.463Z,2.35
2022-08-01T15:44:36.510Z,2.53
2022-08-01T15:47:04.762Z,2.20
2022-08-01T15:49:32.344Z,2.08
2022-08-01T15:51:59.370Z,1.90
2022-08-01T15:54:26.099Z,2.40
2022-08-01T15:56:52.664Z,2.00
2022-08-01T15:59:19.499Z,2.28
2022-08-01T16:01:50.577Z,2.20
2022-08-01T16:04:19.536Z,4.20
2022-08-01T16:06:46.454Z,3.00
2022-08-01T16:09:19.341Z,2.88
2022-08-01T16:11:50.975Z,2.30
2022-08-01T16:14:17.919Z,2.10
2022-08-01T16:16:44.695Z,1.52
2022-08-01T16:19:19.373Z,2.10
2022-08-01T16:21:47.891Z,1.90
2022-08-01T16:24:14.684Z,2.13
2022-08-01T16:26:41.369Z,2.00
2022-08-01T16:29:07.953Z,2.25
2022-08-01T16:31:43.264Z,2.20
2022-08-01T16:34:21.302Z,2.55
2022-08-01T16:36:50.719Z,2.33
2022-08-01T16:39:22.495Z,2.22
2022-08-01T16:41:50.499Z,2.30
2022-08-01T16:44:33.130Z,2.50
2022-08-01T16:47:00.994Z,2.63
2022-08-01T16:49:27.705Z,2.45
2022-08-01T16:51:54.560Z,2.80
2022-08-01T16:54:25.130Z,2.20
2022-08-01T16:56:53.170Z,2.22
2022-08-01T16:59:19.855Z,2.63
2022-08-01T17:02:00.503Z,2.42
2022-08-01T17:04:30.209Z,2.85
2022-08-01T17:06:57.584Z,2.25
2022-08-01T17:09:24.366Z,2.67
2022-08-01T17:11:51.008Z,2.80
2022-08-01T17:14:18.019Z,2.38
2022-08-01T17:16:44.717Z,2.72
2022-08-01T17:19:11.278Z,2.35
2022-08-01T17:21:41.153Z,2.90
2022-08-01T17:24:08.682Z,2.70
2022-08-01T17:26:35.324Z,2.63
2022-08-01T17:29:01.918Z,2.40
2022-08-01T17:31:28.601Z,2.60
2022-08-01T17:33:55.481Z,3.10
2022-08-01T17:36:22.279Z,3.20
2022-08-01T17:38:49.163Z,2.97
2022-08-01T17:41:16.207Z,3.60
2022-08-01T17:43:42.872Z,3.40
2022-08-01T17:46:09.496Z,3.35
2022-08-01T17:48:36.515Z,2.72
2022-08-01T17:51:03.264Z,2.83
2022-08-01T17:53:29.983Z,3.03
2022-08-01T17:55:58.755Z,2.60
2022-08-01T17:58:36.740Z,3.10
2022-08-01T18:01:15.499Z,3.83
2022-08-01T18:03:42.293Z,3.17
2022-08-01T18:06:10.619Z,3.88
2022-08-01T18:08:40.481Z,2.95
2022-08-01T18:11:07.825Z,3.25
2022-08-01T18:13:34.455Z,3.03
2022-08-01T18:16:02.184Z,3.25
2022-08-01T18:18:33.043Z,2.80
2022-08-01T18:21:01.555Z,3.45
2022-08-01T18:23:28.191Z,3.15
2022-08-01T18:25:54.871Z,3.40
2022-08-01T18:28:31.287Z,3.20
2022-08-01T18:31:00.935Z,3.10
2022-08-01T18:33:27.933Z,3.38
2022-08-01T18:36:01.909Z,3.22
2022-08-01T18:38:32.821Z,3.40
2022-08-01T18:41:00.768Z,3.92
2022-08-01T18:43:27.625Z,4.28
2022-08-01T18:45:56.998Z,3.83
2022-08-01T18:48:23.755Z,3.90
2022-08-01T18:50:50.373Z,4.07
2022-08-01T18:53:18.754Z,4.30
2022-08-01T18:55:45.459Z,3.85
2022-08-01T18:58:12.300Z,3.47
2022-08-01T19:00:39.982Z,3.92
2022-08-01T19:03:07.811Z,3.20
2022-08-01T19:05:34.985Z,3.75
2022-08-01T19:08:06.344Z,4.45
2022-08-01T19:10:35.945Z,3.78
2022-08-01T19:13:03.042Z,3.90
2022-08-01T19:15:29.748Z,4.05
2022-08-01T19:17:56.359Z,3.65
2022-08-01T19:20:23.262Z,4.75
2022-08-01T19:22:49.908Z,4.30
2022-08-01T19:25:17.020Z,3.83
2022-08-01T19:27:47.291Z,4.78
2022-08-01T19:30:15.619Z,3.78
2022-08-01T19:32:44.171Z,4.10
2022-08-01T19:35:12.825Z,3.97
2022-08-01T19:37:44.183Z,3.72
2022-08-01T19:40:11.352Z,4.07
2022-08-01T19:42:55.197Z,4.10
2022-08-01T19:45:22.699Z,4.28
2022-08-01T19:47:56.701Z,5.22
2022-08-01T19:50:28.958Z,5.15
2022-08-01T19:52:57.331Z,4.75
2022-08-01T19:55:24.804Z,3.92
2022-08-01T19:58:17.210Z,4.05
2022-08-01T20:00:40.210Z,4.30
2022-08-01T20:03:08.058Z,4.65
2022-08-01T20:05:36.433Z,4.53
2022-08-01T20:08:03.736Z,4.78
2022-08-01T20:10:32.508Z,4.43
2022-08-01T20:12:59.281Z,5.05
2022-08-01T20:15:26.119Z,4.78
2022-08-01T20:17:52.746Z,4.65
2022-08-01T20:20:19.382Z,4.30
2022-08-01T20:22:48.380Z,4.40
2022-08-01T20:25:17.544Z,4.28
2022-08-01T20:27:46.462Z,4.93
2022-08-01T20:30:13.492Z,4.90
2022-08-01T20:32:41.180Z,4.60
2022-08-01T20:35:08.608Z,4.95
2022-08-01T20:38:06.731Z,5.03
2022-08-01T20:40:30.260Z,5.32
2022-08-01T20:42:57.532Z,4.82
2022-08-01T20:45:26.175Z,4.95
2022-08-01T20:47:55.782Z,5.00
2022-08-01T20:50:52.507Z,5.53
2022-08-01T20:53:22.754Z,5.38
2022-08-01T20:55:55.934Z,5.05
2022-08-01T20:58:33.972Z,5.40
2022-08-01T21:01:03.349Z,5.15
2022-08-01T21:03:58.452Z,4.88
2022-08-01T21:06:33.060Z,5.18
2022-08-01T21:11:40.129Z,5.85
2022-08-01T21:14:13.132Z,5.20
2022-08-01T21:16:46.417Z,5.90
2022-08-01T21:19:20.112Z,5.68
2022-08-01T21:22:11.677Z,5.60
2022-08-01T21:25:03.373Z,5.20
2022-08-01T21:27:33.357Z,5.43
2022-08-01T21:30:04.244Z,6.25
2022-08-01T21:32:33.221Z,5.40
2022-08-01T21:35:01.586Z,5.68
2022-08-01T21:37:29.611Z,5.75
2022-08-01T21:39:58.780Z,5.05
2022-08-01T21:42:28.113Z,5.78
2022-08-01T21:44:58.258Z,5.45
2022-08-01T21:47:28.876Z,5.80
2022-08-01T21:50:01.160Z,5.93
2022-08-01T21:52:40.954Z,5.55
2022-08-01T21:55:35.664Z,5.10
2022-08-01T21:58:08.636Z,6.20
2022-08-01T22:00:39.188Z,5.53
2022-08-01T22:03:17.585Z,6.32
2022-08-01T22:05:51.327Z,5.80
2022-08-01T22:08:29.139Z,6.38
2022-08-01T22:11:03.461Z,5.38
2022-08-01T22:13:30.076Z,6.20
2022-08-01T22:15:57.748Z,6.40
2022-08-01T22:18:27.122Z,5.82
2022-08-01T22:20:54.437Z,8.02
2022-08-01T22:23:22.900Z,6.50
2022-08-01T22:25:54.218Z,6.68
2022-08-01T22:28:22.150Z,6.20
2022-08-01T22:30:52.511Z,6.70
2022-08-01T22:33:19.999Z,6.15
2022-08-01T22:35:48.442Z,7.18
2022-08-01T22:38:18.006Z,7.20
2022-08-01T22:41:04.135Z,6.82
2022-08-01T22:43:50.143Z,6.20
2022-08-01T22:46:22.874Z,6.63
2022-08-01T22:49:00.684Z,6.40
2022-08-01T22:51:39.123Z,5.88
2022-08-01T22:54:12.936Z,6.28
2022-08-01T22:56:44.754Z,6.65
2022-08-01T22:59:17.072Z,7.25
2022-08-01T23:01:48.363Z,6.13
2022-08-01T23:04:41.608Z,7.07
2022-08-01T23:07:10.718Z,7.03
2022-08-01T23:09:39.156Z,7.78
2022-08-01T23:12:22.956Z,7.57
2022-08-01T23:14:53.189Z,8.23
2022-08-01T23:17:27.830Z,7.50
2022-08-01T23:19:57.760Z,7.03
2022-08-01T23:22:28.798Z,7.93
2022-08-01T23:25:04.051Z,8.05
2022-08-01T23:27:55.842Z,6.78
2022-08-01T23:30:24.257Z,7.35
2022-08-01T23:32:50.887Z,8.63
2022-08-01T23:35:17.515Z,8.38
2022-08-01T23:37:44.164Z,7.65
2022-08-01T23:40:11.491Z,8.85
2022-08-01T23:42:38.190Z,9.52
2022-08-01T23:45:05.318Z,9.38
2022-08-01T23:47:31.956Z,8.23
2022-08-01T23:49:58.613Z,7.53
2022-08-01T23:52:32.037Z,8.55
2022-08-01T23:55:00.126Z,7.50
2022-08-01T23:57:41.073Z,6.63
